EZY321 EGKK-EDDL
Flight info
| Callsign | EZY321 |
|---|---|
| Flight time | 0h 51m |
| Altitude | 27000 |
| Route | DVR2P DVR L9 KONAN DCT KOK UL607 SPI Y862 KENUM M170 NVO T857 BIKMU BIKMU1A |
| Aircraft | A319/M-V/N |
Departure
| Time | 2026-05-04 20:25 |
|---|---|
| Airport | London Gatwick Airport (EGKK) |
Arrival
| Time | 2026-05-04 21:16 |
|---|---|
| Airport | Düsseldorf Airport (EDDL) |
| Time | Latitude | Longitude | Altitude | Speed | Heading |
|---|---|---|---|---|---|
| 2026-05-04 19:45 | 51.15570 | -0.17758 | 197 ft | 0 kts | 347° |
| 2026-05-04 20:09 | 51.15560 | -0.17754 | 197 ft | 4 kts | 347° |
| 2026-05-04 20:10 | 51.15532 | -0.17744 | 197 ft | 3 kts | 347° |
| 2026-05-04 20:10 | 51.15506 | -0.17735 | 197 ft | 3 kts | 347° |
| 2026-05-04 20:10 | 51.15480 | -0.17725 | 197 ft | 3 kts | 347° |
| 2026-05-04 20:10 | 51.15454 | -0.17716 | 197 ft | 1 kts | 347° |
| 2026-05-04 20:11 | 51.15455 | -0.17716 | 197 ft | 0 kts | 347° |
| 2026-05-04 20:11 | 51.15458 | -0.17717 | 197 ft | 0 kts | 347° |
| 2026-05-04 20:11 | 51.15461 | -0.17719 | 197 ft | 0 kts | 347° |
| 2026-05-04 20:11 | 51.15468 | -0.17721 | 197 ft | 1 kts | 347° |
| 2026-05-04 20:12 | 51.15485 | -0.17727 | 197 ft | 3 kts | 347° |
| 2026-05-04 20:12 | 51.15491 | -0.17742 | 197 ft | 0 kts | 263° |
| 2026-05-04 20:14 | 51.15490 | -0.17755 | 197 ft | 3 kts | 263° |
| 2026-05-04 20:14 | 51.15485 | -0.17820 | 197 ft | 7 kts | 263° |
| 2026-05-04 20:14 | 51.15477 | -0.17927 | 197 ft | 11 kts | 262° |
| 2026-05-04 20:14 | 51.15459 | -0.18068 | 197 ft | 14 kts | 259° |
| 2026-05-04 20:15 | 51.15412 | -0.18160 | 197 ft | 10 kts | 168° |
| 2026-05-04 20:15 | 51.15331 | -0.18127 | 197 ft | 11 kts | 167° |
| 2026-05-04 20:15 | 51.15245 | -0.18097 | 197 ft | 13 kts | 175° |
| 2026-05-04 20:15 | 51.15196 | -0.18171 | 197 ft | 12 kts | 261° |
| 2026-05-04 20:16 | 51.15179 | -0.18331 | 197 ft | 15 kts | 260° |
| 2026-05-04 20:16 | 51.15158 | -0.18504 | 197 ft | 16 kts | 259° |
| 2026-05-04 20:16 | 51.15134 | -0.18687 | 197 ft | 16 kts | 257° |
| 2026-05-04 20:16 | 51.15112 | -0.18851 | 197 ft | 14 kts | 258° |
| 2026-05-04 20:17 | 51.15095 | -0.18973 | 197 ft | 9 kts | 257° |
| 2026-05-04 20:17 | 51.15082 | -0.19065 | 197 ft | 9 kts | 257° |
| 2026-05-04 20:17 | 51.15066 | -0.19174 | 197 ft | 10 kts | 257° |
| 2026-05-04 20:17 | 51.15048 | -0.19301 | 197 ft | 12 kts | 257° |
| 2026-05-04 20:18 | 51.15026 | -0.19446 | 197 ft | 14 kts | 257° |
| 2026-05-04 20:18 | 51.15006 | -0.19610 | 197 ft | 16 kts | 259° |
| 2026-05-04 20:18 | 51.14980 | -0.19807 | 197 ft | 18 kts | 258° |
| 2026-05-04 20:18 | 51.14952 | -0.20010 | 197 ft | 19 kts | 258° |
| 2026-05-04 20:19 | 51.14924 | -0.20220 | 197 ft | 19 kts | 258° |
| 2026-05-04 20:19 | 51.14895 | -0.20433 | 197 ft | 20 kts | 258° |
| 2026-05-04 20:19 | 51.14866 | -0.20652 | 197 ft | 20 kts | 257° |
| 2026-05-04 20:19 | 51.14834 | -0.20875 | 197 ft | 20 kts | 258° |
| 2026-05-04 20:20 | 51.14803 | -0.21103 | 197 ft | 20 kts | 255° |
| 2026-05-04 20:20 | 51.14766 | -0.21309 | 197 ft | 19 kts | 256° |
| 2026-05-04 20:20 | 51.14711 | -0.21399 | 197 ft | 7 kts | 182° |
| 2026-05-04 20:20 | 51.14706 | -0.21399 | 197 ft | 0 kts | 178° |
| 2026-05-04 20:22 | 51.14687 | -0.21393 | 197 ft | 9 kts | 159° |
| 2026-05-04 20:22 | 51.14619 | -0.21326 | 197 ft | 1 kts | 169° |
| 2026-05-04 20:22 | 51.14618 | -0.21326 | 197 ft | 0 kts | 169° |
| 2026-05-04 20:23 | 51.14609 | -0.21323 | 197 ft | 6 kts | 169° |
| 2026-05-04 20:23 | 51.14534 | -0.21258 | 197 ft | 14 kts | 117° |
| 2026-05-04 20:23 | 51.14520 | -0.21152 | 197 ft | 0 kts | 76° |
| 2026-05-04 20:24 | 51.14521 | -0.21149 | 197 ft | 0 kts | 76° |
| 2026-05-04 20:24 | 51.14524 | -0.21127 | 197 ft | 6 kts | 77° |
| 2026-05-04 20:24 | 51.14587 | -0.20670 | 198 ft | 78 kts | 77° |
| 2026-05-04 20:24 | 51.14749 | -0.19484 | 198 ft | 141 kts | 77° |
| 2026-05-04 20:25 | 51.14978 | -0.17797 | 475 ft | 167 kts | 77° |
| 2026-05-04 20:25 | 51.15245 | -0.15870 | 902 ft | 188 kts | 76° |
| 2026-05-04 20:25 | 51.15530 | -0.13836 | 1716 ft | 190 kts | 76° |
| 2026-05-04 20:25 | 51.15804 | -0.11820 | 2568 ft | 193 kts | 75° |
| 2026-05-04 20:26 | 51.16101 | -0.09664 | 3129 ft | 210 kts | 75° |
| 2026-05-04 20:26 | 51.16427 | -0.07300 | 3682 ft | 229 kts | 75° |
| 2026-05-04 20:26 | 51.16743 | -0.04687 | 4251 ft | 248 kts | 79° |
| 2026-05-04 20:26 | 51.16885 | -0.01770 | 4846 ft | 268 kts | 86° |
| 2026-05-04 20:27 | 51.16859 | 0.01304 | 5514 ft | 277 kts | 89° |
| 2026-05-04 20:27 | 51.16791 | 0.04540 | 5898 ft | 281 kts | 89° |
| 2026-05-04 20:27 | 51.16716 | 0.07919 | 5987 ft | 282 kts | 89° |
| 2026-05-04 20:27 | 51.16647 | 0.11195 | 5996 ft | 282 kts | 89° |
| 2026-05-04 20:28 | 51.16586 | 0.14350 | 5998 ft | 282 kts | 89° |
| 2026-05-04 20:28 | 51.16550 | 0.17503 | 5998 ft | 281 kts | 87° |
| 2026-05-04 20:28 | 51.16559 | 0.20619 | 6083 ft | 285 kts | 86° |
| 2026-05-04 20:28 | 51.16575 | 0.23784 | 6610 ft | 291 kts | 86° |
| 2026-05-04 20:29 | 51.16586 | 0.27001 | 7512 ft | 292 kts | 87° |
| 2026-05-04 20:29 | 51.16595 | 0.30255 | 8331 ft | 297 kts | 87° |
| 2026-05-04 20:29 | 51.16602 | 0.33563 | 9071 ft | 303 kts | 88° |
| 2026-05-04 20:29 | 51.16608 | 0.36924 | 9799 ft | 309 kts | 88° |
| 2026-05-04 20:30 | 51.16612 | 0.40366 | 10520 ft | 314 kts | 89° |
| 2026-05-04 20:30 | 51.16615 | 0.43853 | 11230 ft | 319 kts | 90° |
| 2026-05-04 20:30 | 51.16618 | 0.47422 | 11949 ft | 324 kts | 91° |
| 2026-05-04 20:30 | 51.16617 | 0.51003 | 12577 ft | 331 kts | 91° |
| 2026-05-04 20:31 | 51.16611 | 0.54769 | 12911 ft | 348 kts | 91° |
| 2026-05-04 20:31 | 51.16605 | 0.58735 | 13221 ft | 366 kts | 91° |
| 2026-05-04 20:31 | 51.16598 | 0.62868 | 13519 ft | 384 kts | 91° |
| 2026-05-04 20:31 | 51.16591 | 0.67255 | 13812 ft | 401 kts | 92° |
| 2026-05-04 20:32 | 51.16582 | 0.71784 | 14089 ft | 417 kts | 92° |
| 2026-05-04 20:32 | 51.16571 | 0.76435 | 14458 ft | 430 kts | 92° |
| 2026-05-04 20:32 | 51.16559 | 0.81246 | 15051 ft | 436 kts | 92° |
| 2026-05-04 20:32 | 51.16546 | 0.86093 | 15653 ft | 441 kts | 92° |
| 2026-05-04 20:33 | 51.16529 | 0.90973 | 16207 ft | 446 kts | 92° |
| 2026-05-04 20:33 | 51.16510 | 0.95905 | 16756 ft | 451 kts | 92° |
| 2026-05-04 20:33 | 51.16489 | 1.00901 | 17375 ft | 454 kts | 92° |
| 2026-05-04 20:33 | 51.16468 | 1.05903 | 18123 ft | 453 kts | 93° |
| 2026-05-04 20:34 | 51.16444 | 1.10911 | 18824 ft | 452 kts | 93° |
| 2026-05-04 20:34 | 51.16415 | 1.15928 | 19467 ft | 453 kts | 93° |
| 2026-05-04 20:34 | 51.16384 | 1.20965 | 20113 ft | 453 kts | 94° |
| 2026-05-04 20:34 | 51.16350 | 1.25916 | 20731 ft | 453 kts | 94° |
| 2026-05-04 20:35 | 51.16313 | 1.30931 | 21293 ft | 455 kts | 94° |
| 2026-05-04 20:35 | 51.16253 | 1.35992 | 21829 ft | 456 kts | 96° |
| 2026-05-04 20:35 | 51.16066 | 1.40974 | 22353 ft | 456 kts | 98° |
| 2026-05-04 20:35 | 51.15826 | 1.46050 | 22816 ft | 458 kts | 98° |
| 2026-05-04 20:36 | 51.15573 | 1.51097 | 22995 ft | 460 kts | 98° |
| 2026-05-04 20:36 | 51.15318 | 1.56174 | 23000 ft | 460 kts | 98° |
| 2026-05-04 20:36 | 51.15064 | 1.61238 | 23007 ft | 464 kts | 98° |
| 2026-05-04 20:36 | 51.14799 | 1.66477 | 23003 ft | 480 kts | 99° |
| 2026-05-04 20:37 | 51.14528 | 1.71856 | 23005 ft | 494 kts | 98° |
| 2026-05-04 20:37 | 51.14251 | 1.77335 | 23004 ft | 506 kts | 98° |
| 2026-05-04 20:37 | 51.13965 | 1.82993 | 23006 ft | 517 kts | 98° |
| 2026-05-04 20:37 | 51.13672 | 1.88736 | 23004 ft | 522 kts | 98° |
| 2026-05-04 20:38 | 51.13376 | 1.94475 | 23004 ft | 530 kts | 98° |
| 2026-05-04 20:38 | 51.13071 | 2.00330 | 23004 ft | 531 kts | 98° |
| 2026-05-04 20:38 | 51.12763 | 2.06225 | 23004 ft | 531 kts | 98° |
| 2026-05-04 20:38 | 51.12456 | 2.12045 | 23005 ft | 531 kts | 98° |
| 2026-05-04 20:39 | 51.12143 | 2.17884 | 23005 ft | 532 kts | 98° |
| 2026-05-04 20:39 | 51.11823 | 2.23769 | 23007 ft | 542 kts | 98° |
| 2026-05-04 20:39 | 51.11492 | 2.29769 | 23005 ft | 543 kts | 98° |
| 2026-05-04 20:39 | 51.11160 | 2.35776 | 23005 ft | 543 kts | 98° |
| 2026-05-04 20:40 | 51.10825 | 2.41783 | 23005 ft | 543 kts | 98° |
| 2026-05-04 20:40 | 51.10490 | 2.47713 | 23005 ft | 543 kts | 98° |
| 2026-05-04 20:40 | 51.10134 | 2.53940 | 23005 ft | 543 kts | 98° |
| 2026-05-04 20:40 | 51.09748 | 2.59990 | 23005 ft | 542 kts | 100° |
| 2026-05-04 20:41 | 51.09167 | 2.65923 | 23004 ft | 540 kts | 105° |
| 2026-05-04 20:41 | 51.08339 | 2.71807 | 23004 ft | 536 kts | 109° |
| 2026-05-04 20:41 | 51.07341 | 2.77510 | 23005 ft | 535 kts | 111° |
| 2026-05-04 20:41 | 51.06296 | 2.83183 | 23005 ft | 535 kts | 111° |
| 2026-05-04 20:42 | 51.05233 | 2.88883 | 23004 ft | 535 kts | 111° |
| 2026-05-04 20:42 | 51.04183 | 2.94524 | 23004 ft | 536 kts | 111° |
| 2026-05-04 20:42 | 51.03125 | 3.00220 | 23004 ft | 537 kts | 111° |
| 2026-05-04 20:42 | 51.02066 | 3.05936 | 23004 ft | 539 kts | 110° |
| 2026-05-04 20:43 | 51.01011 | 3.11643 | 23000 ft | 537 kts | 110° |
| 2026-05-04 20:43 | 50.99975 | 3.17265 | 23003 ft | 533 kts | 110° |
| 2026-05-04 20:43 | 50.98929 | 3.22922 | 23002 ft | 532 kts | 110° |
| 2026-05-04 20:43 | 50.97888 | 3.28535 | 23001 ft | 532 kts | 110° |
| 2026-05-04 20:44 | 50.96840 | 3.34162 | 22999 ft | 531 kts | 109° |
| 2026-05-04 20:44 | 50.95802 | 3.39707 | 22997 ft | 531 kts | 109° |
| 2026-05-04 20:44 | 50.94747 | 3.45327 | 22994 ft | 530 kts | 109° |
| 2026-05-04 20:44 | 50.93702 | 3.50882 | 22991 ft | 530 kts | 109° |
| 2026-05-04 20:45 | 50.92641 | 3.56498 | 22988 ft | 529 kts | 109° |
| 2026-05-04 20:45 | 50.91589 | 3.62052 | 22985 ft | 529 kts | 109° |
| 2026-05-04 20:45 | 50.90532 | 3.67615 | 22980 ft | 528 kts | 110° |
| 2026-05-04 20:45 | 50.89462 | 3.73202 | 22977 ft | 527 kts | 110° |
| 2026-05-04 20:46 | 50.88379 | 3.78755 | 22971 ft | 527 kts | 110° |
| 2026-05-04 20:46 | 50.87306 | 3.84229 | 22965 ft | 526 kts | 110° |
| 2026-05-04 20:46 | 50.86220 | 3.89772 | 22960 ft | 527 kts | 110° |
| 2026-05-04 20:46 | 50.85139 | 3.95297 | 22956 ft | 527 kts | 110° |
| 2026-05-04 20:47 | 50.84050 | 4.00861 | 22953 ft | 527 kts | 110° |
| 2026-05-04 20:47 | 50.82976 | 4.06345 | 22952 ft | 527 kts | 110° |
| 2026-05-04 20:47 | 50.81885 | 4.11903 | 22952 ft | 527 kts | 110° |
| 2026-05-04 20:47 | 50.80796 | 4.17434 | 22951 ft | 527 kts | 110° |
| 2026-05-04 20:48 | 50.79718 | 4.22895 | 22951 ft | 527 kts | 110° |
| 2026-05-04 20:48 | 50.78632 | 4.28387 | 22951 ft | 527 kts | 110° |
| 2026-05-04 20:48 | 50.77542 | 4.33878 | 22951 ft | 527 kts | 110° |
| 2026-05-04 20:48 | 50.76442 | 4.39410 | 22951 ft | 527 kts | 110° |
| 2026-05-04 20:49 | 50.75330 | 4.44980 | 22951 ft | 527 kts | 110° |
| 2026-05-04 20:49 | 50.74229 | 4.50490 | 22951 ft | 527 kts | 110° |
| 2026-05-04 20:49 | 50.73136 | 4.55934 | 22951 ft | 527 kts | 110° |
| 2026-05-04 20:49 | 50.72034 | 4.61421 | 22951 ft | 527 kts | 110° |
| 2026-05-04 20:50 | 50.70946 | 4.66982 | 22949 ft | 527 kts | 110° |
| 2026-05-04 20:50 | 50.69894 | 4.72452 | 22951 ft | 527 kts | 110° |
| 2026-05-04 20:50 | 50.68829 | 4.77996 | 22952 ft | 527 kts | 110° |
| 2026-05-04 20:50 | 50.67765 | 4.83496 | 22952 ft | 527 kts | 110° |
| 2026-05-04 20:51 | 50.66683 | 4.89034 | 22952 ft | 526 kts | 110° |
| 2026-05-04 20:51 | 50.65596 | 4.94517 | 22952 ft | 526 kts | 110° |
| 2026-05-04 20:51 | 50.64491 | 4.99939 | 22952 ft | 525 kts | 110° |
| 2026-05-04 20:51 | 50.63352 | 5.05455 | 22952 ft | 525 kts | 110° |
| 2026-05-04 20:52 | 50.62223 | 5.10906 | 22952 ft | 524 kts | 110° |
| 2026-05-04 20:52 | 50.61105 | 5.16306 | 22952 ft | 524 kts | 110° |
| 2026-05-04 20:52 | 50.59981 | 5.21727 | 22952 ft | 524 kts | 110° |
| 2026-05-04 20:52 | 50.58836 | 5.27239 | 22952 ft | 526 kts | 110° |
| 2026-05-04 20:53 | 50.57664 | 5.32852 | 23008 ft | 547 kts | 110° |
| 2026-05-04 20:53 | 50.56488 | 5.38469 | 23741 ft | 547 kts | 110° |
| 2026-05-04 20:53 | 50.55324 | 5.44023 | 23876 ft | 519 kts | 110° |
| 2026-05-04 20:53 | 50.54225 | 5.49280 | 23855 ft | 497 kts | 110° |
| 2026-05-04 20:54 | 50.53142 | 5.54458 | 23854 ft | 477 kts | 110° |
| 2026-05-04 20:54 | 50.52210 | 5.59398 | 23837 ft | 461 kts | 101° |
| 2026-05-04 20:54 | 50.52165 | 5.64317 | 23819 ft | 444 kts | 77° |
| 2026-05-04 20:54 | 50.53145 | 5.68772 | 23826 ft | 421 kts | 59° |
| 2026-05-04 20:55 | 50.54580 | 5.72677 | 23825 ft | 401 kts | 51° |
| 2026-05-04 20:55 | 50.56158 | 5.76151 | 23824 ft | 384 kts | 47° |
| 2026-05-04 20:55 | 50.57719 | 5.79438 | 23820 ft | 370 kts | 47° |
| 2026-05-04 20:55 | 50.59229 | 5.82635 | 23814 ft | 356 kts | 49° |
| 2026-05-04 20:56 | 50.60586 | 5.85826 | 23816 ft | 353 kts | 51° |
| 2026-05-04 20:56 | 50.61939 | 5.89144 | 23823 ft | 369 kts | 52° |
| 2026-05-04 20:56 | 50.63351 | 5.92607 | 23828 ft | 385 kts | 52° |
| 2026-05-04 20:56 | 50.64839 | 5.96238 | 23832 ft | 402 kts | 52° |
| 2026-05-04 20:57 | 50.66345 | 6.00000 | 23835 ft | 419 kts | 54° |
| 2026-05-04 20:57 | 50.67942 | 6.03948 | 23839 ft | 432 kts | 50° |
| 2026-05-04 20:57 | 50.69762 | 6.07822 | 23844 ft | 446 kts | 47° |
| 2026-05-04 20:57 | 50.71663 | 6.11694 | 23845 ft | 460 kts | 47° |
| 2026-05-04 20:58 | 50.73689 | 6.15774 | 23849 ft | 474 kts | 47° |
| 2026-05-04 20:58 | 50.75792 | 6.19995 | 23846 ft | 478 kts | 47° |
| 2026-05-04 20:58 | 50.77848 | 6.24120 | 23847 ft | 478 kts | 47° |
| 2026-05-04 20:58 | 50.79886 | 6.28214 | 23847 ft | 477 kts | 47° |
| 2026-05-04 20:59 | 50.81907 | 6.32287 | 23681 ft | 468 kts | 47° |
| 2026-05-04 20:59 | 50.83902 | 6.36315 | 23328 ft | 459 kts | 47° |
| 2026-05-04 20:59 | 50.85835 | 6.40226 | 22980 ft | 450 kts | 47° |
| 2026-05-04 20:59 | 50.87736 | 6.44075 | 22629 ft | 442 kts | 47° |
| 2026-05-04 21:00 | 50.89620 | 6.47888 | 22276 ft | 434 kts | 47° |
| 2026-05-04 21:00 | 50.91456 | 6.51604 | 21926 ft | 429 kts | 47° |
| 2026-05-04 21:00 | 50.93296 | 6.55321 | 21919 ft | 428 kts | 46° |
| 2026-05-04 21:00 | 50.95129 | 6.59017 | 21862 ft | 434 kts | 46° |
| 2026-05-04 21:01 | 50.96994 | 6.62766 | 21432 ft | 433 kts | 47° |
| 2026-05-04 21:01 | 50.98854 | 6.66487 | 21005 ft | 434 kts | 47° |
| 2026-05-04 21:01 | 51.00761 | 6.70283 | 20573 ft | 435 kts | 47° |
| 2026-05-04 21:01 | 51.02647 | 6.74014 | 20149 ft | 436 kts | 47° |
| 2026-05-04 21:02 | 51.04552 | 6.77757 | 19723 ft | 436 kts | 47° |
| 2026-05-04 21:02 | 51.06461 | 6.81483 | 19299 ft | 435 kts | 47° |
| 2026-05-04 21:02 | 51.08367 | 6.85187 | 18876 ft | 435 kts | 47° |
| 2026-05-04 21:02 | 51.10274 | 6.88879 | 18452 ft | 434 kts | 47° |
| 2026-05-04 21:03 | 51.12200 | 6.92573 | 18026 ft | 433 kts | 47° |
| 2026-05-04 21:03 | 51.14134 | 6.96256 | 17599 ft | 432 kts | 47° |
| 2026-05-04 21:03 | 51.16058 | 6.99905 | 17175 ft | 432 kts | 47° |
| 2026-05-04 21:03 | 51.17990 | 7.03566 | 16604 ft | 434 kts | 47° |
| 2026-05-04 21:04 | 51.19931 | 7.07230 | 15773 ft | 431 kts | 47° |
| 2026-05-04 21:04 | 51.21838 | 7.10815 | 14951 ft | 422 kts | 47° |
| 2026-05-04 21:04 | 51.23703 | 7.14311 | 14131 ft | 414 kts | 47° |
| 2026-05-04 21:04 | 51.25565 | 7.17786 | 13298 ft | 405 kts | 47° |
| 2026-05-04 21:05 | 51.27370 | 7.21145 | 12476 ft | 398 kts | 47° |
| 2026-05-04 21:05 | 51.29150 | 7.24437 | 11654 ft | 391 kts | 47° |
| 2026-05-04 21:05 | 51.30922 | 7.27678 | 10825 ft | 384 kts | 47° |
| 2026-05-04 21:05 | 51.32681 | 7.30843 | 9996 ft | 376 kts | 47° |
| 2026-05-04 21:06 | 51.34447 | 7.33974 | 9152 ft | 368 kts | 47° |
| 2026-05-04 21:06 | 51.36116 | 7.36894 | 8479 ft | 354 kts | 47° |
| 2026-05-04 21:06 | 51.37893 | 7.39495 | 8020 ft | 335 kts | 31° |
| 2026-05-04 21:06 | 51.39977 | 7.40849 | 7377 ft | 323 kts | 7° |
| 2026-05-04 21:07 | 51.42131 | 7.40746 | 7221 ft | 294 kts | 347° |
| 2026-05-04 21:07 | 51.44038 | 7.40057 | 7221 ft | 276 kts | 342° |
| 2026-05-04 21:07 | 51.45835 | 7.39313 | 7219 ft | 260 kts | 342° |
| 2026-05-04 21:07 | 51.47566 | 7.38579 | 7221 ft | 258 kts | 340° |
| 2026-05-04 21:08 | 51.49129 | 7.37314 | 7211 ft | 251 kts | 313° |
| 2026-05-04 21:08 | 51.50075 | 7.35058 | 7217 ft | 242 kts | 284° |
| 2026-05-04 21:08 | 51.50433 | 7.32433 | 7223 ft | 239 kts | 274° |
| 2026-05-04 21:08 | 51.50639 | 7.29796 | 7221 ft | 238 kts | 272° |
| 2026-05-04 21:09 | 51.50816 | 7.27165 | 7220 ft | 238 kts | 272° |
| 2026-05-04 21:09 | 51.50988 | 7.24523 | 7219 ft | 238 kts | 270° |
| 2026-05-04 21:09 | 51.50783 | 7.21964 | 7252 ft | 229 kts | 239° |
| 2026-05-04 21:09 | 51.49822 | 7.19883 | 7112 ft | 233 kts | 225° |
| 2026-05-04 21:10 | 51.48690 | 7.18054 | 6899 ft | 228 kts | 226° |
| 2026-05-04 21:10 | 51.47744 | 7.16028 | 6906 ft | 231 kts | 234° |
| 2026-05-04 21:10 | 51.46858 | 7.13872 | 6906 ft | 231 kts | 234° |
| 2026-05-04 21:10 | 51.45905 | 7.11819 | 6690 ft | 233 kts | 227° |
| 2026-05-04 21:11 | 51.44733 | 7.09858 | 6206 ft | 257 kts | 225° |
| 2026-05-04 21:11 | 51.43430 | 7.07688 | 5775 ft | 259 kts | 226° |
| 2026-05-04 21:11 | 51.42204 | 7.05485 | 5339 ft | 261 kts | 228° |
| 2026-05-04 21:11 | 51.41067 | 7.03254 | 4917 ft | 262 kts | 230° |
| 2026-05-04 21:12 | 51.39992 | 7.00863 | 4471 ft | 263 kts | 237° |
| 2026-05-04 21:12 | 51.39046 | 6.98424 | 3869 ft | 252 kts | 233° |
| 2026-05-04 21:12 | 51.38040 | 6.96291 | 3329 ft | 233 kts | 230° |
| 2026-05-04 21:12 | 51.37044 | 6.94318 | 2858 ft | 221 kts | 230° |
| 2026-05-04 21:13 | 51.36138 | 6.92460 | 2567 ft | 204 kts | 231° |
| 2026-05-04 21:13 | 51.35300 | 6.90686 | 2150 ft | 198 kts | 232° |
| 2026-05-04 21:13 | 51.34505 | 6.88943 | 1703 ft | 193 kts | 232° |
| 2026-05-04 21:13 | 51.33730 | 6.87270 | 1416 ft | 176 kts | 232° |
| 2026-05-04 21:14 | 51.33036 | 6.85876 | 1344 ft | 148 kts | 229° |
| 2026-05-04 21:14 | 51.32545 | 6.84832 | 1143 ft | 140 kts | 233° |
| 2026-05-04 21:14 | 51.32023 | 6.83685 | 893 ft | 136 kts | 232° |
| 2026-05-04 21:14 | 51.31443 | 6.82468 | 728 ft | 131 kts | 230° |
| 2026-05-04 21:15 | 51.30877 | 6.81323 | 546 ft | 141 kts | 230° |
| 2026-05-04 21:15 | 51.30240 | 6.79965 | 453 ft | 153 kts | 232° |
| 2026-05-04 21:15 | 51.29621 | 6.78687 | 275 ft | 140 kts | 232° |
| 2026-05-04 21:15 | 51.29063 | 6.77503 | 154 ft | 123 kts | 232° |
| 2026-05-04 21:16 | 51.28609 | 6.76559 | 154 ft | 87 kts | 233° |
| 2026-05-04 21:16 | 51.28369 | 6.76095 | 154 ft | 30 kts | 213° |
| 2026-05-04 21:16 | 51.28228 | 6.76054 | 153 ft | 15 kts | 149° |
| 2026-05-04 21:16 | 51.28186 | 6.76147 | 153 ft | 9 kts | 77° |
| 2026-05-04 21:17 | 51.28193 | 6.76175 | 153 ft | 0 kts | 61° |
| 2026-05-04 21:17 | 51.28194 | 6.76179 | 153 ft | 3 kts | 61° |
| 2026-05-04 21:17 | 51.28188 | 6.76257 | 153 ft | 9 kts | 121° |
| 2026-05-04 21:17 | 51.28165 | 6.76314 | 153 ft | 5 kts | 127° |
| 2026-05-04 21:18 | 51.28149 | 6.76339 | 153 ft | 0 kts | 135° |
| 2026-05-04 21:18 | 51.28141 | 6.76335 | 153 ft | 5 kts | 235° |
| 2026-05-04 21:18 | 51.28096 | 6.76289 | 153 ft | 8 kts | 179° |
| 2026-05-04 21:18 | 51.28063 | 6.76290 | 153 ft | 0 kts | 186° |